sensor_id;sensor_type;location;lat;lon;timestamp;temperature;humidity
20418;DHT22;10368;51.436;6.774;2022-07-29T00:01:03;20.10;96.50
20418;DHT22;10368;51.436;6.774;2022-07-29T00:03:30;20.10;96.80
20418;DHT22;10368;51.436;6.774;2022-07-29T00:05:57;20.10;97.50
20418;DHT22;10368;51.436;6.774;2022-07-29T00:08:26;20.10;97.90
20418;DHT22;10368;51.436;6.774;2022-07-29T00:10:53;20.10;99.70
20418;DHT22;10368;51.436;6.774;2022-07-29T00:13:20;19.80;85.80
20418;DHT22;10368;51.436;6.774;2022-07-29T00:15:58;20.10;87.30
20418;DHT22;10368;51.436;6.774;2022-07-29T00:18:31;20.10;90.30
20418;DHT22;10368;51.436;6.774;2022-07-29T00:20:58;19.00;99.90
20418;DHT22;10368;51.436;6.774;2022-07-29T00:23:25;20.00;86.20
20418;DHT22;10368;51.436;6.774;2022-07-29T00:25:53;20.00;88.60
20418;DHT22;10368;51.436;6.774;2022-07-29T00:28:20;20.00;88.30
20418;DHT22;10368;51.436;6.774;2022-07-29T00:30:47;20.00;86.80
20418;DHT22;10368;51.436;6.774;2022-07-29T00:33:14;19.90;87.30
20418;DHT22;10368;51.436;6.774;2022-07-29T00:35:41;19.80;87.40
20418;DHT22;10368;51.436;6.774;2022-07-29T00:38:15;19.90;87.00
20418;DHT22;10368;51.436;6.774;2022-07-29T00:40:43;19.90;87.90
20418;DHT22;10368;51.436;6.774;2022-07-29T00:43:11;19.90;91.80
20418;DHT22;10368;51.436;6.774;2022-07-29T00:45:38;19.70;87.40
20418;DHT22;10368;51.436;6.774;2022-07-29T00:48:06;19.80;87.30
20418;DHT22;10368;51.436;6.774;2022-07-29T00:50:35;19.70;87.30
20418;DHT22;10368;51.436;6.774;2022-07-29T00:53:04;19.70;87.50
20418;DHT22;10368;51.436;6.774;2022-07-29T00:55:32;19.60;87.50
20418;DHT22;10368;51.436;6.774;2022-07-29T00:57:59;19.60;87.30
20418;DHT22;10368;51.436;6.774;2022-07-29T01:00:28;19.70;88.00
20418;DHT22;10368;51.436;6.774;2022-07-29T01:02:55;19.70;87.30
20418;DHT22;10368;51.436;6.774;2022-07-29T01:05:24;19.70;87.30
20418;DHT22;10368;51.436;6.774;2022-07-29T01:08:14;19.60;87.10
20418;DHT22;10368;51.436;6.774;2022-07-29T01:10:42;19.50;87.20
20418;DHT22;10368;51.436;6.774;2022-07-29T01:13:10;19.50;87.60
20418;DHT22;10368;51.436;6.774;2022-07-29T03:59:14;17.90;99.90
20418;DHT22;10368;51.436;6.774;2022-07-29T04:01:42;17.90;95.60
20418;DHT22;10368;51.436;6.774;2022-07-29T04:04:10;17.80;95.90
20418;DHT22;10368;51.436;6.774;2022-07-29T04:06:46;17.80;95.90
20418;DHT22;10368;51.436;6.774;2022-07-29T04:09:14;18.00;96.60
20418;DHT22;10368;51.436;6.774;2022-07-29T04:11:42;18.00;97.20
20418;DHT22;10368;51.436;6.774;2022-07-29T04:14:30;17.90;98.90
20418;DHT22;10368;51.436;6.774;2022-07-29T04:16:57;17.70;99.40
20418;DHT22;10368;51.436;6.774;2022-07-29T04:19:24;17.60;99.90
20418;DHT22;10368;51.436;6.774;2022-07-29T04:21:51;17.60;99.90
20418;DHT22;10368;51.436;6.774;2022-07-29T11:31:40;23.40;95.10
20418;DHT22;10368;51.436;6.774;2022-07-29T11:34:18;23.60;94.40
20418;DHT22;10368;51.436;6.774;2022-07-29T11:40:07;23.20;95.50
20418;DHT22;10368;51.436;6.774;2022-07-29T11:50:48;24.00;99.90
20418;DHT22;10368;51.436;6.774;2022-07-29T11:53:15;23.30;99.90
20418;DHT22;10368;51.436;6.774;2022-07-29T11:55:42;23.10;99.90
20418;DHT22;10368;51.436;6.774;2022-07-29T11:58:21;23.20;99.90
20418;DHT22;10368;51.436;6.774;2022-07-29T12:00:53;23.50;99.90
20418;DHT22;10368;51.436;6.774;2022-07-29T12:03:40;23.80;99.90
20418;DHT22;10368;51.436;6.774;2022-07-29T12:06:13;23.50;99.60
20418;DHT22;10368;51.436;6.774;2022-07-29T12:08:44;23.60;99.50
20418;DHT22;10368;51.436;6.774;2022-07-29T12:11:19;23.40;95.20
20418;DHT22;10368;51.436;6.774;2022-07-29T12:13:50;23.40;95.40
20418;DHT22;10368;51.436;6.774;2022-07-29T12:16:21;23.40;95.30
20418;DHT22;10368;51.436;6.774;2022-07-29T12:21:28;22.80;99.90
20418;DHT22;10368;51.436;6.774;2022-07-29T12:23:57;22.70;97.30
20418;DHT22;10368;51.436;6.774;2022-07-29T12:26:35;22.80;99.90
20418;DHT22;10368;51.436;6.774;2022-07-29T12:29:02;22.60;99.90
20418;DHT22;10368;51.436;6.774;2022-07-29T12:31:41;22.50;99.90
20418;DHT22;10368;51.436;6.774;2022-07-29T12:34:12;22.60;99.90
20418;DHT22;10368;51.436;6.774;2022-07-29T12:36:41;22.50;99.90
20418;DHT22;10368;51.436;6.774;2022-07-29T12:39:10;22.60;99.90
20418;DHT22;10368;51.436;6.774;2022-07-29T12:41:38;22.60;99.90
20418;DHT22;10368;51.436;6.774;2022-07-29T12:44:05;22.60;99.90
20418;DHT22;10368;51.436;6.774;2022-07-29T12:46:32;22.80;99.90
20418;DHT22;10368;51.436;6.774;2022-07-29T12:48:59;23.00;99.90
20418;DHT22;10368;51.436;6.774;2022-07-29T12:51:34;23.10;99.90
20418;DHT22;10368;51.436;6.774;2022-07-29T12:56:34;23.00;99.90
20418;DHT22;10368;51.436;6.774;2022-07-29T12:59:21;23.20;99.90
20418;DHT22;10368;51.436;6.774;2022-07-29T13:01:51;23.50;99.90
20418;DHT22;10368;51.436;6.774;2022-07-29T13:04:32;23.40;96.90
20418;DHT22;10368;51.436;6.774;2022-07-29T13:07:01;23.60;99.90
20418;DHT22;10368;51.436;6.774;2022-07-29T13:12:39;23.40;99.90
20418;DHT22;10368;51.436;6.774;2022-07-29T13:15:15;23.30;99.90
20418;DHT22;10368;51.436;6.774;2022-07-29T13:17:43;23.30;99.90
20418;DHT22;10368;51.436;6.774;2022-07-29T13:20:13;23.20;99.90
20418;DHT22;10368;51.436;6.774;2022-07-29T13:22:41;23.30;99.90
20418;DHT22;10368;51.436;6.774;2022-07-29T13:25:09;23.20;99.90
20418;DHT22;10368;51.436;6.774;2022-07-29T13:27:38;23.10;99.90
20418;DHT22;10368;51.436;6.774;2022-07-29T13:30:08;23.20;99.90
20418;DHT22;10368;51.436;6.774;2022-07-29T13:32:36;23.80;99.90
20418;DHT22;10368;51.436;6.774;2022-07-29T13:35:07;24.60;99.90
20418;DHT22;10368;51.436;6.774;2022-07-29T13:37:35;25.50;94.40
20418;DHT22;10368;51.436;6.774;2022-07-29T13:40:06;25.50;90.70
20418;DHT22;10368;51.436;6.774;2022-07-29T13:42:34;26.30;88.60
20418;DHT22;10368;51.436;6.774;2022-07-29T13:45:02;26.20;87.30
20418;DHT22;10368;51.436;6.774;2022-07-29T13:47:30;26.10;88.70
20418;DHT22;10368;51.436;6.774;2022-07-29T13:50:00;26.30;87.80
